sensor_id;sensor_type;location;lat;lon;timestamp;pressure;altitude;pressure_sealevel;temperature;humidity
5146;BME280;2591;48.144;15.152;2023-02-23T00:01:26;76237.25;;;-144.65;100.00
5146;BME280;2591;48.144;15.152;2023-02-23T00:03:55;76231.13;;;-144.65;100.00
5146;BME280;2591;48.144;15.152;2023-02-23T00:06:26;76237.25;;;-144.65;100.00
5146;BME280;2591;48.144;15.152;2023-02-23T00:08:54;76245.41;;;-144.65;100.00
5146;BME280;2591;48.144;15.152;2023-02-23T00:11:23;76243.38;;;-144.65;100.00
5146;BME280;2591;48.144;15.152;2023-02-23T00:13:53;76245.41;;;-144.65;100.00
5146;BME280;2591;48.144;15.152;2023-02-23T00:16:24;76245.41;;;-144.65;100.00
5146;BME280;2591;48.144;15.152;2023-02-23T00:18:53;76247.44;;;-144.65;100.00
5146;BME280;2591;48.144;15.152;2023-02-23T00:21:24;76247.44;;;-144.65;100.00
5146;BME280;2591;48.144;15.152;2023-02-23T00:23:57;76245.41;;;-144.65;100.00
5146;BME280;2591;48.144;15.152;2023-02-23T00:26:27;76249.47;;;-144.65;100.00
5146;BME280;2591;48.144;15.152;2023-02-23T00:28:57;76251.53;;;-144.65;100.00
5146;BME280;2591;48.144;15.152;2023-02-23T00:31:26;76253.56;;;-144.65;100.00
5146;BME280;2591;48.144;15.152;2023-02-23T00:33:56;76251.53;;;-144.65;100.00
5146;BME280;2591;48.144;15.152;2023-02-23T00:36:27;76259.69;;;-144.65;100.00
5146;BME280;2591;48.144;15.152;2023-02-23T00:38:58;76261.72;;;-144.65;100.00
5146;BME280;2591;48.144;15.152;2023-02-23T00:41:27;76265.78;;;-144.65;100.00
5146;BME280;2591;48.144;15.152;2023-02-23T00:43:57;76263.75;;;-144.65;100.00
5146;BME280;2591;48.144;15.152;2023-02-23T00:46:27;76259.69;;;-144.65;100.00
5146;BME280;2591;48.144;15.152;2023-02-23T00:48:57;76261.72;;;-144.65;100.00
5146;BME280;2591;48.144;15.152;2023-02-23T00:51:26;76265.78;;;-144.65;100.00
5146;BME280;2591;48.144;15.152;2023-02-23T00:53:59;76269.88;;;-144.65;100.00
5146;BME280;2591;48.144;15.152;2023-02-23T00:56:27;76282.09;;;-144.65;100.00
5146;BME280;2591;48.144;15.152;2023-02-23T00:58:55;76288.22;;;-144.65;100.00
5146;BME280;2591;48.144;15.152;2023-02-23T01:01:23;76306.56;;;-144.65;100.00
5146;BME280;2591;48.144;15.152;2023-02-23T01:03:51;76302.50;;;-144.65;100.00
5146;BME280;2591;48.144;15.152;2023-02-23T01:06:20;76310.66;;;-144.65;100.00
5146;BME280;2591;48.144;15.152;2023-02-23T01:08:49;76306.56;;;-144.65;100.00
5146;BME280;2591;48.144;15.152;2023-02-23T01:11:21;76318.81;;;-144.65;100.00
5146;BME280;2591;48.144;15.152;2023-02-23T01:13:52;76322.88;;;-144.65;100.00
5146;BME280;2591;48.144;15.152;2023-02-23T01:16:21;76316.75;;;-144.65;100.00
5146;BME280;2591;48.144;15.152;2023-02-23T01:18:51;76318.81;;;-144.65;100.00
5146;BME280;2591;48.144;15.152;2023-02-23T01:21:21;76318.81;;;-144.65;100.00
5146;BME280;2591;48.144;15.152;2023-02-23T01:23:50;76324.91;;;-144.65;100.00
5146;BME280;2591;48.144;15.152;2023-02-23T01:26:21;76322.88;;;-144.65;100.00
5146;BME280;2591;48.144;15.152;2023-02-23T01:28:50;76322.88;;;-144.65;100.00
5146;BME280;2591;48.144;15.152;2023-02-23T01:31:18;76316.75;;;-144.65;100.00
5146;BME280;2591;48.144;15.152;2023-02-23T01:33:51;76318.81;;;-144.65;100.00
5146;BME280;2591;48.144;15.152;2023-02-23T01:36:19;76322.88;;;-144.65;100.00
5146;BME280;2591;48.144;15.152;2023-02-23T01:38:47;76320.84;;;-144.65;100.00
5146;BME280;2591;48.144;15.152;2023-02-23T01:41:15;76320.84;;;-144.65;100.00
5146;BME280;2591;48.144;15.152;2023-02-23T01:43:59;76331.03;;;-144.65;100.00
5146;BME280;2591;48.144;15.152;2023-02-23T01:46:30;76341.22;;;-144.65;100.00
5146;BME280;2591;48.144;15.152;2023-02-23T01:48:59;76349.38;;;-144.65;100.00
5146;BME280;2591;48.144;15.152;2023-02-23T01:51:30;76345.31;;;-144.65;100.00
5146;BME280;2591;48.144;15.152;2023-02-23T01:54:12;76359.59;;;-144.65;100.00
5146;BME280;2591;48.144;15.152;2023-02-23T01:56:43;76355.50;;;-144.65;100.00
5146;BME280;2591;48.144;15.152;2023-02-23T01:59:15;76351.44;;;-144.65;100.00
5146;BME280;2591;48.144;15.152;2023-02-23T02:01:44;76359.59;;;-144.65;100.00
5146;BME280;2591;48.144;15.152;2023-02-23T02:04:14;76365.69;;;-144.65;100.00
5146;BME280;2591;48.144;15.152;2023-02-23T02:06:44;76359.59;;;-144.65;100.00
5146;BME280;2591;48.144;15.152;2023-02-23T02:09:15;76365.69;;;-144.65;100.00
5146;BME280;2591;48.144;15.152;2023-02-23T02:11:44;76373.84;;;-144.65;100.00
5146;BME280;2591;48.144;15.152;2023-02-23T02:14:23;76375.91;;;-144.65;100.00
5146;BME280;2591;48.144;15.152;2023-02-23T02:17:13;76371.81;;;-144.65;100.00
5146;BME280;2591;48.144;15.152;2023-02-23T02:20:11;76369.78;;;-144.65;100.00
5146;BME280;2591;48.144;15.152;2023-02-23T02:23:45;76377.94;;;-144.65;100.00
5146;BME280;2591;48.144;15.152;2023-02-23T02:26:25;76379.97;;;-144.65;100.00
5146;BME280;2591;48.144;15.152;2023-02-23T02:29:27;76392.22;;;-144.65;100.00
5146;BME280;2591;48.144;15.152;2023-02-23T02:38:34;76404.44;;;-144.65;100.00
5146;BME280;2591;48.144;15.152;2023-02-23T02:41:12;76404.44;;;-144.65;100.00
5146;BME280;2591;48.144;15.152;2023-02-23T02:43:47;76408.53;;;-144.65;100.00
5146;BME280;2591;48.144;15.152;2023-02-23T02:46:21;76408.53;;;-144.65;100.00
5146;BME280;2591;48.144;15.152;2023-02-23T02:48:58;76396.28;;;-144.65;100.00
5146;BME280;2591;48.144;15.152;2023-02-23T02:51:34;76400.38;;;-144.65;100.00
5146;BME280;2591;48.144;15.152;2023-02-23T02:54:09;76404.44;;;-144.65;100.00
5146;BME280;2591;48.144;15.152;2023-02-23T02:56:40;76412.59;;;-144.65;100.00
5146;BME280;2591;48.144;15.152;2023-02-23T02:59:12;76418.72;;;-144.65;100.00
5146;BME280;2591;48.144;15.152;2023-02-23T03:01:58;76412.59;;;-144.65;100.00
5146;BME280;2591;48.144;15.152;2023-02-23T03:04:43;76420.75;;;-144.65;100.00
5146;BME280;2591;48.144;15.152;2023-02-23T03:07:30;76420.75;;;-144.65;100.00
5146;BME280;2591;48.144;15.152;2023-02-23T03:10:27;76416.69;;;-144.65;100.00
5146;BME280;2591;48.144;15.152;2023-02-23T03:13:21;76420.75;;;-144.65;100.00
5146;BME280;2591;48.144;15.152;2023-02-23T03:16:18;76420.75;;;-144.65;100.00
5146;BME280;2591;48.144;15.152;2023-02-23T03:19:12;76420.75;;;-144.65;100.00
5146;BME280;2591;48.144;15.152;2023-02-23T03:22:05;76420.75;;;-144.65;100.00
5146;BME280;2591;48.144;15.152;2023-02-23T03:24:55;76424.84;;;-144.65;100.00
5146;BME280;2591;48.144;15.152;2023-02-23T03:27:48;76432.97;;;-144.65;100.00
5146;BME280;2591;48.144;15.152;2023-02-23T03:30:42;76432.97;;;-144.65;100.00
5146;BME280;2591;48.144;15.152;2023-02-23T03:33:38;76439.09;;;-144.65;100.00
5146;BME280;2591;48.144;15.152;2023-02-23T03:36:27;76445.22;;;-144.65;100.00
5146;BME280;2591;48.144;15.152;2023-02-23T03:39:23;76447.25;;;-144.65;100.00
5146;BME280;2591;48.144;15.152;2023-02-23T03:42:14;76447.25;;;-144.65;100.00
5146;BME280;2591;48.144;15.152;2023-02-23T03:45:06;76457.44;;;-144.65;100.00
5146;BME280;2591;48.144;15.152;2023-02-23T03:47:54;76451.34;;;-144.65;100.00
5146;BME280;2591;48.144;15.152;2023-02-23T03:50:44;76455.41;;;-144.65;100.00
5146;BME280;2591;48.144;15.152;2023-02-23T03:53:34;76459.50;;;-144.65;100.00
5146;BME280;2591;48.144;15.152;2023-02-23T03:56:25;76463.56;;;-144.65;100.00
5146;BME280;2591;48.144;15.152;2023-02-23T03:59:14;76471.72;;;-144.65;100.00
5146;BME280;2591;48.144;15.152;2023-02-23T04:02:05;76469.69;;;-144.65;100.00
5146;BME280;2591;48.144;15.152;2023-02-23T04:04:53;76477.84;;;-144.65;100.00
5146;BME280;2591;48.144;15.152;2023-02-23T04:07:40;76471.72;;;-144.65;100.00
5146;BME280;2591;48.144;15.152;2023-02-23T04:10:27;76473.75;;;-144.65;100.00
5146;BME280;2591;48.144;15.152;2023-02-23T04:13:17;76469.69;;;-144.65;100.00
5146;BME280;2591;48.144;15.152;2023-02-23T04:15:51;76471.72;;;-144.65;100.00
5146;BME280;2591;48.144;15.152;2023-02-23T04:18:22;76469.69;;;-144.65;100.00
5146;BME280;2591;48.144;15.152;2023-02-23T04:20:51;76465.63;;;-144.65;100.00
5146;BME280;2591;48.144;15.152;2023-02-23T04:23:20;76467.66;;;-144.65;100.00
5146;BME280;2591;48.144;15.152;2023-02-23T04:25:50;76465.63;;;-144.65;100.00
5146;BME280;2591;48.144;15.152;2023-02-23T04:28:18;76465.63;;;-144.65;100.00
5146;BME280;2591;48.144;15.152;2023-02-23T04:30:46;76467.66;;;-144.65;100.00
5146;BME280;2591;48.144;15.152;2023-02-23T04:33:14;76471.72;;;-144.65;100.00
5146;BME280;2591;48.144;15.152;2023-02-23T04:35:43;76465.63;;;-144.65;100.00
5146;BME280;2591;48.144;15.152;2023-02-23T04:38:11;76459.50;;;-144.65;100.00
5146;BME280;2591;48.144;15.152;2023-02-23T04:40:39;76467.66;;;-144.65;100.00
5146;BME280;2591;48.144;15.152;2023-02-23T04:43:08;76469.69;;;-144.65;100.00
5146;BME280;2591;48.144;15.152;2023-02-23T04:45:37;76469.69;;;-144.65;100.00
5146;BME280;2591;48.144;15.152;2023-02-23T04:48:05;76467.66;;;-144.65;100.00
5146;BME280;2591;48.144;15.152;2023-02-23T04:50:33;76469.69;;;-144.65;100.00
5146;BME280;2591;48.144;15.152;2023-02-23T04:53:02;76473.75;;;-144.65;100.00
5146;BME280;2591;48.144;15.152;2023-02-23T04:55:30;76475.81;;;-144.65;100.00
5146;BME280;2591;48.144;15.152;2023-02-23T04:58:00;76479.88;;;-144.65;100.00
5146;BME280;2591;48.144;15.152;2023-02-23T05:00:28;76477.84;;;-144.65;100.00
5146;BME280;2591;48.144;15.152;2023-02-23T05:02:57;76486.00;;;-144.65;100.00
5146;BME280;2591;48.144;15.152;2023-02-23T05:05:24;76483.97;;;-144.65;100.00
5146;BME280;2591;48.144;15.152;2023-02-23T05:07:52;76479.88;;;-144.65;100.00
5146;BME280;2591;48.144;15.152;2023-02-23T05:10:22;76477.84;;;-144.65;100.00
5146;BME280;2591;48.144;15.152;2023-02-23T05:12:50;76481.91;;;-144.65;100.00
5146;BME280;2591;48.144;15.152;2023-02-23T05:15:18;76477.84;;;-144.65;100.00
5146;BME280;2591;48.144;15.152;2023-02-23T05:17:46;76469.69;;;-144.65;100.00
5146;BME280;2591;48.144;15.152;2023-02-23T05:20:14;76467.66;;;-144.65;100.00
5146;BME280;2591;48.144;15.152;2023-02-23T05:22:42;76465.63;;;-144.65;100.00
5146;BME280;2591;48.144;15.152;2023-02-23T05:25:10;76465.63;;;-144.65;100.00
5146;BME280;2591;48.144;15.152;2023-02-23T05:27:39;76463.56;;;-144.65;100.00
5146;BME280;2591;48.144;15.152;2023-02-23T05:30:08;76463.56;;;-144.65;100.00
5146;BME280;2591;48.144;15.152;2023-02-23T05:32:36;76467.66;;;-144.65;100.00
5146;BME280;2591;48.144;15.152;2023-02-23T05:35:04;76467.66;;;-144.65;100.00
5146;BME280;2591;48.144;15.152;2023-02-23T05:37:33;76477.84;;;-144.65;100.00
5146;BME280;2591;48.144;15.152;2023-02-23T05:40:01;76479.88;;;-144.65;100.00
5146;BME280;2591;48.144;15.152;2023-02-23T05:42:29;76481.91;;;-144.65;100.00
5146;BME280;2591;48.144;15.152;2023-02-23T05:44:58;76488.03;;;-144.65;100.00
5146;BME280;2591;48.144;15.152;2023-02-23T05:47:26;76498.22;;;-144.65;100.00
5146;BME280;2591;48.144;15.152;2023-02-23T05:49:54;76502.31;;;-144.65;100.00
5146;BME280;2591;48.144;15.152;2023-02-23T05:52:22;76506.38;;;-144.65;100.00
5146;BME280;2591;48.144;15.152;2023-02-23T05:54:50;76512.50;;;-144.65;100.00
5146;BME280;2591;48.144;15.152;2023-02-23T05:57:17;76510.47;;;-144.65;100.00
5146;BME280;2591;48.144;15.152;2023-02-23T05:59:45;76514.53;;;-144.65;100.00
5146;BME280;2591;48.144;15.152;2023-02-23T06:02:14;76510.47;;;-144.65;100.00
5146;BME280;2591;48.144;15.152;2023-02-23T06:04:42;76520.66;;;-144.65;100.00
5146;BME280;2591;48.144;15.152;2023-02-23T06:07:10;76518.63;;;-144.65;100.00
5146;BME280;2591;48.144;15.152;2023-02-23T06:09:38;76518.63;;;-144.65;100.00
5146;BME280;2591;48.144;15.152;2023-02-23T06:12:08;76522.69;;;-144.65;100.00
5146;BME280;2591;48.144;15.152;2023-02-23T06:14:36;76526.78;;;-144.65;100.00
5146;BME280;2591;48.144;15.152;2023-02-23T06:17:04;76526.78;;;-144.65;100.00
5146;BME280;2591;48.144;15.152;2023-02-23T06:19:34;76526.78;;;-144.65;100.00
5146;BME280;2591;48.144;15.152;2023-02-23T06:22:02;76522.69;;;-144.65;100.00
5146;BME280;2591;48.144;15.152;2023-02-23T06:24:30;76522.69;;;-144.65;100.00
5146;BME280;2591;48.144;15.152;2023-02-23T06:26:58;76522.69;;;-144.65;100.00
5146;BME280;2591;48.144;15.152;2023-02-23T06:29:25;76522.69;;;-144.65;100.00
5146;BME280;2591;48.144;15.152;2023-02-23T06:31:53;76526.78;;;-144.65;100.00
5146;BME280;2591;48.144;15.152;2023-02-23T06:34:22;76524.75;;;-144.65;100.00
5146;BME280;2591;48.144;15.152;2023-02-23T06:36:51;76524.75;;;-144.65;100.00
5146;BME280;2591;48.144;15.152;2023-02-23T06:39:19;76526.78;;;-144.65;100.00
5146;BME280;2591;48.144;15.152;2023-02-23T06:41:47;76520.66;;;-144.65;100.00
5146;BME280;2591;48.144;15.152;2023-02-23T06:44:15;76518.63;;;-144.65;100.00
5146;BME280;2591;48.144;15.152;2023-02-23T06:46:43;76514.53;;;-144.65;100.00
5146;BME280;2591;48.144;15.152;2023-02-23T06:49:11;76514.53;;;-144.65;100.00
5146;BME280;2591;48.144;15.152;2023-02-23T06:51:42;76502.31;;;-144.65;100.00
5146;BME280;2591;48.144;15.152;2023-02-23T06:54:11;76506.38;;;-144.65;100.00
5146;BME280;2591;48.144;15.152;2023-02-23T06:56:38;76483.97;;;-144.65;100.00
5146;BME280;2591;48.144;15.152;2023-02-23T06:59:06;76473.75;;;-144.65;100.00
5146;BME280;2591;48.144;15.152;2023-02-23T07:01:34;76477.84;;;-144.65;100.00
5146;BME280;2591;48.144;15.152;2023-02-23T07:04:02;76461.53;;;-144.65;100.00
5146;BME280;2591;48.144;15.152;2023-02-23T07:06:31;76449.28;;;-144.65;100.00
5146;BME280;2591;48.144;15.152;2023-02-23T07:08:58;76441.16;;;-144.65;100.00
5146;BME280;2591;48.144;15.152;2023-02-23T07:11:27;76432.97;;;-144.65;100.00
5146;BME280;2591;48.144;15.152;2023-02-23T07:13:56;76428.91;;;-144.65;100.00
5146;BME280;2591;48.144;15.152;2023-02-23T07:16:24;76424.84;;;-144.65;100.00
5146;BME280;2591;48.144;15.152;2023-02-23T07:18:53;76420.75;;;-144.65;100.00
5146;BME280;2591;48.144;15.152;2023-02-23T07:21:21;76412.59;;;-144.65;100.00
5146;BME280;2591;48.144;15.152;2023-02-23T07:23:49;76404.44;;;-144.65;100.00
5146;BME280;2591;48.144;15.152;2023-02-23T07:26:16;76400.38;;;-144.65;100.00
5146;BME280;2591;48.144;15.152;2023-02-23T07:28:46;76384.06;;;-144.65;100.00
5146;BME280;2591;48.144;15.152;2023-02-23T07:31:14;76377.94;;;-144.65;100.00
5146;BME280;2591;48.144;15.152;2023-02-23T07:33:42;76373.84;;;-144.65;100.00
5146;BME280;2591;48.144;15.152;2023-02-23T07:36:10;76367.75;;;-144.65;100.00
5146;BME280;2591;48.144;15.152;2023-02-23T07:38:38;76367.75;;;-144.65;100.00
5146;BME280;2591;48.144;15.152;2023-02-23T07:41:05;76355.50;;;-144.65;100.00
5146;BME280;2591;48.144;15.152;2023-02-23T07:43:33;76339.19;;;-144.65;100.00
5146;BME280;2591;48.144;15.152;2023-02-23T07:46:02;76333.06;;;-144.65;100.00
5146;BME280;2591;48.144;15.152;2023-02-23T07:48:31;76331.03;;;-144.65;100.00
5146;BME280;2591;48.144;15.152;2023-02-23T07:50:59;76329.00;;;-144.65;100.00
5146;BME280;2591;48.144;15.152;2023-02-23T07:53:27;76318.81;;;-144.65;100.00
5146;BME280;2591;48.144;15.152;2023-02-23T07:55:55;76312.69;;;-144.65;100.00
5146;BME280;2591;48.144;15.152;2023-02-23T07:58:23;76298.41;;;-144.65;100.00
5146;BME280;2591;48.144;15.152;2023-02-23T08:00:51;76298.41;;;-144.65;100.00
5146;BME280;2591;48.144;15.152;2023-02-23T08:03:20;76288.22;;;-144.65;100.00
5146;BME280;2591;48.144;15.152;2023-02-23T08:05:48;76282.09;;;-144.65;100.00
5146;BME280;2591;48.144;15.152;2023-02-23T08:08:16;76273.94;;;-144.65;100.00
5146;BME280;2591;48.144;15.152;2023-02-23T08:10:44;76261.72;;;-144.65;100.00
5146;BME280;2591;48.144;15.152;2023-02-23T08:13:16;76257.63;;;-144.65;100.00
5146;BME280;2591;48.144;15.152;2023-02-23T08:15:44;76253.56;;;-144.65;100.00
5146;BME280;2591;48.144;15.152;2023-02-23T08:18:11;76241.31;;;-144.65;100.00
5146;BME280;2591;48.144;15.152;2023-02-23T08:20:41;76229.09;;;-144.65;100.00
5146;BME280;2591;48.144;15.152;2023-02-23T08:23:09;76212.78;;;-144.65;100.00
5146;BME280;2591;48.144;15.152;2023-02-23T08:25:37;76204.63;;;-144.65;100.00
5146;BME280;2591;48.144;15.152;2023-02-23T08:28:05;76204.63;;;-144.65;100.00
5146;BME280;2591;48.144;15.152;2023-02-23T08:30:32;76196.47;;;-144.65;100.00
5146;BME280;2591;48.144;15.152;2023-02-23T08:33:00;76192.41;;;-144.65;100.00
5146;BME280;2591;48.144;15.152;2023-02-23T08:35:28;76184.25;;;-144.65;100.00
5146;BME280;2591;48.144;15.152;2023-02-23T08:37:58;76176.09;;;-144.65;100.00
5146;BME280;2591;48.144;15.152;2023-02-23T08:40:26;76161.81;;;-144.65;100.00
5146;BME280;2591;48.144;15.152;2023-02-23T08:42:53;76161.81;;;-144.65;100.00
5146;BME280;2591;48.144;15.152;2023-02-23T08:45:21;76153.66;;;-144.65;100.00
5146;BME280;2591;48.144;15.152;2023-02-23T08:47:49;76143.47;;;-144.65;100.00
5146;BME280;2591;48.144;15.152;2023-02-23T08:50:17;76127.16;;;-144.65;100.00
5146;BME280;2591;48.144;15.152;2023-02-23T08:52:45;76090.44;;;-144.65;100.00
5146;BME280;2591;48.144;15.152;2023-02-23T08:55:14;76070.06;;;-144.65;100.00
5146;BME280;2591;48.144;15.152;2023-02-23T08:57:43;76055.78;;;-144.65;100.00
5146;BME280;2591;48.144;15.152;2023-02-23T09:00:13;76027.25;;;-144.65;100.00
5146;BME280;2591;48.144;15.152;2023-02-23T09:02:43;76023.19;;;-144.65;100.00
5146;BME280;2591;48.144;15.152;2023-02-23T09:05:13;76008.91;;;-144.65;100.00
5146;BME280;2591;48.144;15.152;2023-02-23T09:07:41;76002.78;;;-144.65;100.00
5146;BME280;2591;48.144;15.152;2023-02-23T09:10:11;76004.81;;;-144.65;100.00
5146;BME280;2591;48.144;15.152;2023-02-23T09:12:41;76004.81;;;-144.65;99.90
5146;BME280;2591;48.144;15.152;2023-02-23T09:15:09;75996.66;;;-144.65;99.85
5146;BME280;2591;48.144;15.152;2023-02-23T09:17:37;75984.44;;;-144.65;99.68
5146;BME280;2591;48.144;15.152;2023-02-23T09:20:09;75976.28;;;-144.65;98.95
5146;BME280;2591;48.144;15.152;2023-02-23T09:22:39;75966.09;;;-144.65;97.17
5146;BME280;2591;48.144;15.152;2023-02-23T09:25:08;75951.81;;;-144.65;96.77
5146;BME280;2591;48.144;15.152;2023-02-23T09:27:36;75933.47;;;-144.65;96.02
5146;BME280;2591;48.144;15.152;2023-02-23T09:30:06;75921.25;;;-144.65;95.75
5146;BME280;2591;48.144;15.152;2023-02-23T09:32:34;75923.28;;;-144.65;94.18
5146;BME280;2591;48.144;15.152;2023-02-23T09:35:03;75909.00;;;-144.65;94.40
5146;BME280;2591;48.144;15.152;2023-02-23T09:37:31;75884.53;;;-144.65;94.31
5146;BME280;2591;48.144;15.152;2023-02-23T09:39:59;75896.78;;;-144.65;92.46
5146;BME280;2591;48.144;15.152;2023-02-23T09:42:35;75898.81;;;-144.65;91.74
5146;BME280;2591;48.144;15.152;2023-02-23T09:45:17;75896.78;;;-144.65;91.44
5146;BME280;2591;48.144;15.152;2023-02-23T09:48:06;75890.66;;;-144.65;91.50
5146;BME280;2591;48.144;15.152;2023-02-23T09:50:37;75894.75;;;-144.65;90.24
5146;BME280;2591;48.144;15.152;2023-02-23T09:53:10;75904.94;;;-144.65;89.59
5146;BME280;2591;48.144;15.152;2023-02-23T09:55:40;75906.97;;;-144.65;89.52
5146;BME280;2591;48.144;15.152;2023-02-23T09:58:17;75911.03;;;-144.65;90.20
5146;BME280;2591;48.144;15.152;2023-02-23T10:00:58;75906.97;;;-144.65;89.92
5146;BME280;2591;48.144;15.152;2023-02-23T10:03:33;75902.88;;;-144.65;90.06
5146;BME280;2591;48.144;15.152;2023-02-23T10:06:03;75896.78;;;-144.65;89.97
5146;BME280;2591;48.144;15.152;2023-02-23T10:08:42;75890.66;;;-144.65;89.65
5146;BME280;2591;48.144;15.152;2023-02-23T10:11:19;75866.19;;;-144.65;89.15
5146;BME280;2591;48.144;15.152;2023-02-23T10:13:57;75858.03;;;-144.65;88.30
5146;BME280;2591;48.144;15.152;2023-02-23T10:16:38;75845.81;;;-144.65;88.17
5146;BME280;2591;48.144;15.152;2023-02-23T10:19:12;75831.53;;;-144.65;87.31
5146;BME280;2591;48.144;15.152;2023-02-23T10:21:49;75815.22;;;-144.65;87.37
5146;BME280;2591;48.144;15.152;2023-02-23T10:24:24;75807.06;;;-144.65;87.11
5146;BME280;2591;48.144;15.152;2023-02-23T10:26:57;75788.72;;;-144.65;86.61
5146;BME280;2591;48.144;15.152;2023-02-23T10:29:30;75786.69;;;-144.65;85.10
5146;BME280;2591;48.144;15.152;2023-02-23T10:32:02;75778.53;;;-144.65;85.34
5146;BME280;2591;48.144;15.152;2023-02-23T10:34:32;75760.19;;;-144.65;85.66
5146;BME280;2591;48.144;15.152;2023-02-23T10:37:04;75752.03;;;-144.65;85.19
5146;BME280;2591;48.144;15.152;2023-02-23T10:39:32;75735.72;;;-144.65;84.44
5146;BME280;2591;48.144;15.152;2023-02-23T10:42:03;75735.72;;;-144.65;83.97
5146;BME280;2591;48.144;15.152;2023-02-23T10:44:33;75735.72;;;-144.65;82.57
5146;BME280;2591;48.144;15.152;2023-02-23T10:47:08;75731.66;;;-144.65;83.09
5146;BME280;2591;48.144;15.152;2023-02-23T10:49:41;75719.41;;;-144.65;83.53
5146;BME280;2591;48.144;15.152;2023-02-23T10:52:10;75709.22;;;-144.65;83.59
5146;BME280;2591;48.144;15.152;2023-02-23T10:54:42;75694.94;;;-144.65;81.95
5146;BME280;2591;48.144;15.152;2023-02-23T10:57:18;75690.88;;;-144.65;80.60
5146;BME280;2591;48.144;15.152;2023-02-23T11:00:07;75670.50;;;-144.65;80.53
5146;BME280;2591;48.144;15.152;2023-02-23T11:02:47;75666.41;;;-144.65;79.41
5146;BME280;2591;48.144;15.152;2023-02-23T11:05:28;75648.06;;;-144.65;79.86
5146;BME280;2591;48.144;15.152;2023-02-23T11:08:17;75639.91;;;-144.65;78.90
5146;BME280;2591;48.144;15.152;2023-02-23T11:11:05;75637.88;;;-144.65;78.50
5146;BME280;2591;48.144;15.152;2023-02-23T11:13:37;75654.19;;;-144.65;78.69
5146;BME280;2591;48.144;15.152;2023-02-23T11:16:08;75646.03;;;-144.65;79.98
5146;BME280;2591;48.144;15.152;2023-02-23T11:18:40;75641.94;;;-144.65;80.35
5146;BME280;2591;48.144;15.152;2023-02-23T11:21:10;75633.78;;;-144.65;79.95
5146;BME280;2591;48.144;15.152;2023-02-23T11:23:40;75629.72;;;-144.65;79.04
5146;BME280;2591;48.144;15.152;2023-02-23T11:26:21;75613.41;;;-144.65;78.42
5146;BME280;2591;48.144;15.152;2023-02-23T11:28:54;75597.09;;;-144.65;78.33
5146;BME280;2591;48.144;15.152;2023-02-23T11:31:29;75593.03;;;-144.65;77.49
5146;BME280;2591;48.144;15.152;2023-02-23T11:34:00;75586.91;;;-144.65;77.53
5146;BME280;2591;48.144;15.152;2023-02-23T11:36:30;75564.47;;;-144.65;77.49
5146;BME280;2591;48.144;15.152;2023-02-23T11:39:16;75550.22;;;-144.65;77.56
5146;BME280;2591;48.144;15.152;2023-02-23T11:41:45;75544.09;;;-144.65;76.67
5146;BME280;2591;48.144;15.152;2023-02-23T11:44:19;75533.91;;;-144.65;76.54
5146;BME280;2591;48.144;15.152;2023-02-23T11:46:48;75535.94;;;-144.65;76.63
5146;BME280;2591;48.144;15.152;2023-02-23T11:49:22;75535.94;;;-144.65;76.33
5146;BME280;2591;48.144;15.152;2023-02-23T11:51:52;75535.94;;;-144.65;76.61
5146;BME280;2591;48.144;15.152;2023-02-23T11:54:24;75533.91;;;-144.65;76.47
5146;BME280;2591;48.144;15.152;2023-02-23T11:56:55;75542.06;;;-144.65;76.72
5146;BME280;2591;48.144;15.152;2023-02-23T11:59:27;75540.03;;;-144.65;77.67
5146;BME280;2591;48.144;15.152;2023-02-23T12:02:03;75540.03;;;-144.65;77.79
5146;BME280;2591;48.144;15.152;2023-02-23T12:04:35;75544.09;;;-144.65;77.26
5146;BME280;2591;48.144;15.152;2023-02-23T12:07:23;75552.25;;;-144.65;77.29
5146;BME280;2591;48.144;15.152;2023-02-23T12:09:58;75560.41;;;-144.65;77.82
5146;BME280;2591;48.144;15.152;2023-02-23T12:12:29;75554.28;;;-144.65;77.65
5146;BME280;2591;48.144;15.152;2023-02-23T12:15:01;75552.25;;;-144.65;77.57
5146;BME280;2591;48.144;15.152;2023-02-23T12:17:39;75546.13;;;-144.65;78.57
5146;BME280;2591;48.144;15.152;2023-02-23T12:20:13;75529.84;;;-144.65;78.92
5146;BME280;2591;48.144;15.152;2023-02-23T12:22:46;75511.47;;;-144.65;77.53
5146;BME280;2591;48.144;15.152;2023-02-23T12:25:20;75515.56;;;-144.65;77.46
5146;BME280;2591;48.144;15.152;2023-02-23T12:27:53;75501.28;;;-144.65;77.50
5146;BME280;2591;48.144;15.152;2023-02-23T12:30:41;75497.22;;;-144.65;76.97
5146;BME280;2591;48.144;15.152;2023-02-23T12:33:14;75466.63;;;-144.65;76.57
5146;BME280;2591;48.144;15.152;2023-02-23T12:35:52;75448.28;;;-144.65;76.26
5146;BME280;2591;48.144;15.152;2023-02-23T12:38:25;75429.94;;;-144.65;74.87
5146;BME280;2591;48.144;15.152;2023-02-23T12:41:04;75419.75;;;-144.65;74.36
5146;BME280;2591;48.144;15.152;2023-02-23T12:43:38;75425.88;;;-144.65;74.07
5146;BME280;2591;48.144;15.152;2023-02-23T12:46:11;75421.78;;;-144.65;75.07
5146;BME280;2591;48.144;15.152;2023-02-23T12:48:49;75407.53;;;-144.65;74.19
5146;BME280;2591;48.144;15.152;2023-02-23T12:51:26;75403.44;;;-144.65;73.73
5146;BME280;2591;48.144;15.152;2023-02-23T12:53:55;75393.25;;;-144.65;74.04
5146;BME280;2591;48.144;15.152;2023-02-23T12:56:31;75387.13;;;-144.65;73.47
5146;BME280;2591;48.144;15.152;2023-02-23T12:59:18;75368.78;;;-144.65;73.84
5146;BME280;2591;48.144;15.152;2023-02-23T13:01:52;75376.94;;;-144.65;73.31
5146;BME280;2591;48.144;15.152;2023-02-23T13:04:29;75383.06;;;-144.65;73.90
5146;BME280;2591;48.144;15.152;2023-02-23T13:07:05;75389.19;;;-144.65;73.79
5146;BME280;2591;48.144;15.152;2023-02-23T13:09:44;75385.09;;;-144.65;73.96
5146;BME280;2591;48.144;15.152;2023-02-23T13:12:24;75393.25;;;-144.65;73.59
5146;BME280;2591;48.144;15.152;2023-02-23T13:14:59;75401.41;;;-144.65;74.02
5146;BME280;2591;48.144;15.152;2023-02-23T13:17:37;75393.25;;;-144.65;73.31
5146;BME280;2591;48.144;15.152;2023-02-23T13:20:16;75407.53;;;-144.65;73.82